Atlantic Island — C4VM2 — position and weather

sailwx.info

Track history (hours):
 
Tides and Currents Weather Stations Pressure Air Temp Water Temp Dewpoint Dewpoint Depression Visibility Wind Speed Wind Dir Waves Ship Positions

Atlantic Island

Last reported at 2016-Jul-29 15:06 UTC. Time now 2016-Jul-30 09:14 UTC.
Position N 39°08' W 009°47'.

Length 95 m; draft 5.6 m.

Type: Cargo ship. MMSI: 210754000.

Date/timePositionNaut miles runAvg speedWind from/ knotsBaromVisibWave heightAir tempDewpointWater temp
2016-Jul-29 15:06N 39°08' W 009°47'5 8.4
2016-Jul-29 14:27N 39°02' W 009°48'7 8.3
2016-Jul-29 13:34N 38°55' W 009°49'8 8.3
2016-Jul-29 12:33N 38°47' W 009°50'9 8.6
2016-Jul-29 11:33N 38°38' W 009°51'9 8.7
2016-Jul-29 10:33N 38°30' W 009°50'9 8.7
2016-Jul-29 09:33N 38°21' W 009°49'9 8.8
2016-Jul-29 08:33N 38°12' W 009°49'9 9.0
2016-Jul-29 07:33N 38°03' W 009°49'9 8.9
2016-Jul-29 06:33N 37°54' W 009°48'9 8.9
2016-Jul-29 05:33N 37°45' W 009°48'9 9.1
2016-Jul-29 04:33N 37°36' W 009°47'9 8.9
2016-Jul-29 03:33N 37°27' W 009°47'9 9.2
2016-Jul-29 02:33N 37°18' W 009°46'9 9.5
2016-Jul-29 01:33N 37°09' W 009°45'10 9.2
2016-Jul-29 00:27N 36°59' W 009°45'9 9.1
2016-Jul-28 23:25N 36°49' W 009°44'9 9.1
2016-Jul-28 22:27N 36°40' W 009°44'8 9.0
2016-Jul-28 21:33N 36°32' W 009°44'9 9.2
2016-Jul-28 20:33N 36°23' W 009°43'241 8.9
2016-Jul-27 17:22N 32°23' W 009°24'7 0.3
2016-Jul-26 19:17N 32°17' W 009°19'0 0.0
2016-Jul-26 18:29N 32°17' W 009°19'0 0.0
2016-Jul-26 17:32N 32°17' W 009°19'0 0.0
2016-Jul-26 10:23N 32°17' W 009°19'1 0.2
2016-Jul-26 04:31N 32°18' W 009°19'6 5.3
2016-Jul-26 03:27N 32°20' W 009°25'9 8.2
2016-Jul-26 02:23N 32°29' W 009°29'11 9.0
2016-Jul-26 01:07N 32°39' W 009°23'610.0
2016-Jul-26 00:33N 32°43' W 009°19'10 9.8
2016-Jul-25 23:33N 32°50' W 009°11'1010.3
2016-Jul-25 22:33N 32°58' W 009°03'1310.4
2016-Jul-25 21:17N 33°08' W 008°52'5110.6
2016-Jul-25 16:28N 33°33' W 007°59'1011.2
2016-Jul-25 15:34N 33°36' W 007°47'  
2016-Jul-22 06:07N 34°25' W 007°24'6110.9
2016-Jul-22 00:31N 35°24' W 007°08'1310.8
2016-Jul-21 23:19N 35°37' W 007°04'910.5
2016-Jul-21 22:30N 35°45' W 007°02'1110.6
2016-Jul-21 21:30N 35°56' W 006°60'2010.1
2016-Jul-21 19:32N 36°15' W 006°54'  
Track history (hours):
 
Tides and Currents Weather Stations Pressure Air Temp Water Temp Dewpoint Dewpoint Depression Visibility Wind Speed Wind Dir Waves Ship Positions

Atlantic Island

Last reported at 2016-Jul-29 15:06 UTC. Time now 2016-Jul-30 09:14 UTC.
Position N 39°08' W 009°47'.

Length 95 m; draft 5.6 m.

Type: Cargo ship. MMSI: 210754000.

Date/timePositionNaut miles runAvg speedWind from/ knotsBaromVisibWave heightAir tempDewpointWater temp
2016-Jul-29 15:06N 39°08' W 009°47'5 8.4
2016-Jul-29 14:27N 39°02' W 009°48'7 8.3
2016-Jul-29 13:34N 38°55' W 009°49'8 8.3
2016-Jul-29 12:33N 38°47' W 009°50'9 8.6
2016-Jul-29 11:33N 38°38' W 009°51'9 8.7
2016-Jul-29 10:33N 38°30' W 009°50'9 8.7
2016-Jul-29 09:33N 38°21' W 009°49'9 8.8
2016-Jul-29 08:33N 38°12' W 009°49'9 9.0
2016-Jul-29 07:33N 38°03' W 009°49'9 8.9
2016-Jul-29 06:33N 37°54' W 009°48'9 8.9
2016-Jul-29 05:33N 37°45' W 009°48'9 9.1
2016-Jul-29 04:33N 37°36' W 009°47'9 8.9
2016-Jul-29 03:33N 37°27' W 009°47'9 9.2
2016-Jul-29 02:33N 37°18' W 009°46'9 9.5
2016-Jul-29 01:33N 37°09' W 009°45'10 9.2
2016-Jul-29 00:27N 36°59' W 009°45'9 9.1
2016-Jul-28 23:25N 36°49' W 009°44'9 9.1
2016-Jul-28 22:27N 36°40' W 009°44'8 9.0
2016-Jul-28 21:33N 36°32' W 009°44'9 9.2
2016-Jul-28 20:33N 36°23' W 009°43'241 8.9
2016-Jul-27 17:22N 32°23' W 009°24'7 0.3
2016-Jul-26 19:17N 32°17' W 009°19'0 0.0
2016-Jul-26 18:29N 32°17' W 009°19'0 0.0
2016-Jul-26 17:32N 32°17' W 009°19'0 0.0
2016-Jul-26 10:23N 32°17' W 009°19'1 0.2
2016-Jul-26 04:31N 32°18' W 009°19'6 5.3
2016-Jul-26 03:27N 32°20' W 009°25'9 8.2
2016-Jul-26 02:23N 32°29' W 009°29'11 9.0
2016-Jul-26 01:07N 32°39' W 009°23'610.0
2016-Jul-26 00:33N 32°43' W 009°19'10 9.8
2016-Jul-25 23:33N 32°50' W 009°11'1010.3
2016-Jul-25 22:33N 32°58' W 009°03'1310.4
2016-Jul-25 21:17N 33°08' W 008°52'5110.6
2016-Jul-25 16:28N 33°33' W 007°59'1011.2
2016-Jul-25 15:34N 33°36' W 007°47'  
2016-Jul-22 06:07N 34°25' W 007°24'6110.9
2016-Jul-22 00:31N 35°24' W 007°08'1310.8
2016-Jul-21 23:19N 35°37' W 007°04'910.5
2016-Jul-21 22:30N 35°45' W 007°02'1110.6
2016-Jul-21 21:30N 35°56' W 006°60'2010.1
2016-Jul-21 19:32N 36°15' W 006°54'  

Dump ship's entire track history